アルジェ の空港の天気 - METARとTAF

ウアリ・ブーメディアン空港 ( DAAG / ALG ) - アルジェリア アルジェ
飛行場実況気象(Metar)
観測時間11/14 18:00 CET (11/14 17:00 UTC)
風向・風速東 3m/s
視程10km以上
天気現象
少しの雲 雲底高度 700m
全天の4割程度の雲 雲底高度 1520m
気温20℃
湿度68%
気圧1019hPa
METARDAAG 141700Z 09005KT 060V120 9999 FEW023 SCT050 20/14 Q1019
過去の天気等 Google飛行場航空写真 Wunderground天気予報

過去48時間のMETAR

飛行場予報(TAF)
発表時間: 11/14 12:00 CET (11/14 11:00 UTC)
予報対象時間: 14日13時 CET ~ 15日13時 CET
風向・風速南南東 4m/s
視程10km以上
少しの雲 雲底高度 790m
全天の4割程度の雲 雲底高度 3050m
14日13時 CET ~ 14日21時 CET に 確率 40% で一時的に
少しの塔状積雲 雲底高度 790m
14日13時 CET ~ 14日18時 CET に 確率 30% で一時的に
視程5000m
天気現象弱い雨
少しの積乱雲 雲底高度 790m
15日4時 CET ~ 15日9時 CET に 確率 30% で一時的に
風向・風速南南東 8m/s 瞬間風速 13m/s
TAF DAAG 141100Z 1412/1512 16008KT 9999 FEW026 SCT100
PROB40 TEMPO 1412/1420 FEW026TCU
PROB30 TEMPO 1412/1417 5000 -RA FEW026CB
PROB30 TEMPO 1503/1508 16015G25KT